CES9067 RCKH-ZSHC
Flight info
| Callsign | CES9067 |
|---|---|
| Flight time | 1h 37m |
| Altitude | 36100 |
| Route | SULEM R596 OKATO R596 BZ A470 UGAGO UGAGO52 |
| Aircraft | B738/M-SDE2E3FGHIRWXY/LB1 |
Departure
| Time | 2026-04-30 10:34 |
|---|---|
| Airport | Kaohsiung International Airport (RCKH) |
Arrival
| Time | 2026-04-30 12:11 |
|---|---|
| Airport | Hangzhou Xiaoshan International Airport (ZSHC) |
| Time | Latitude | Longitude | Altitude | Speed | Heading |
|---|---|---|---|---|---|
| 2026-04-30 10:19 | 22.57332 | 120.34226 | 37 ft | 0 kts | 270° |
| 2026-04-30 10:22 | 22.57332 | 120.34239 | 38 ft | 2 kts | 272° |
| 2026-04-30 10:23 | 22.57332 | 120.34257 | 38 ft | 2 kts | 274° |
| 2026-04-30 10:23 | 22.57330 | 120.34275 | 35 ft | 2 kts | 278° |
| 2026-04-30 10:23 | 22.57327 | 120.34293 | 36 ft | 2 kts | 285° |
| 2026-04-30 10:23 | 22.57322 | 120.34309 | 35 ft | 2 kts | 300° |
| 2026-04-30 10:24 | 22.57311 | 120.34323 | 36 ft | 2 kts | 339° |
| 2026-04-30 10:24 | 22.57300 | 120.34325 | 37 ft | 1 kts | 0° |
| 2026-04-30 10:24 | 22.57299 | 120.34325 | 36 ft | 0 kts | 0° |
| 2026-04-30 10:26 | 22.57309 | 120.34326 | 36 ft | 5 kts | 1° |
| 2026-04-30 10:26 | 22.57376 | 120.34327 | 37 ft | 12 kts | 3° |
| 2026-04-30 10:26 | 22.57402 | 120.34397 | 35 ft | 12 kts | 95° |
| 2026-04-30 10:26 | 22.57397 | 120.34483 | 37 ft | 11 kts | 92° |
| 2026-04-30 10:27 | 22.57394 | 120.34568 | 37 ft | 11 kts | 92° |
| 2026-04-30 10:27 | 22.57439 | 120.34613 | 37 ft | 11 kts | 1° |
| 2026-04-30 10:27 | 22.57513 | 120.34617 | 38 ft | 10 kts | 8° |
| 2026-04-30 10:27 | 22.57550 | 120.34673 | 38 ft | 10 kts | 91° |
| 2026-04-30 10:28 | 22.57548 | 120.34749 | 37 ft | 10 kts | 91° |
| 2026-04-30 10:28 | 22.57547 | 120.34823 | 37 ft | 10 kts | 92° |
| 2026-04-30 10:28 | 22.57543 | 120.34898 | 37 ft | 11 kts | 92° |
| 2026-04-30 10:28 | 22.57540 | 120.34994 | 37 ft | 15 kts | 92° |
| 2026-04-30 10:29 | 22.57537 | 120.35125 | 37 ft | 20 kts | 91° |
| 2026-04-30 10:29 | 22.57531 | 120.35286 | 37 ft | 22 kts | 92° |
| 2026-04-30 10:29 | 22.57524 | 120.35449 | 37 ft | 21 kts | 92° |
| 2026-04-30 10:29 | 22.57521 | 120.35607 | 37 ft | 21 kts | 91° |
| 2026-04-30 10:30 | 22.57517 | 120.35761 | 37 ft | 20 kts | 94° |
| 2026-04-30 10:30 | 22.57511 | 120.35909 | 37 ft | 19 kts | 92° |
| 2026-04-30 10:30 | 22.57505 | 120.36053 | 38 ft | 19 kts | 91° |
| 2026-04-30 10:30 | 22.57503 | 120.36192 | 36 ft | 18 kts | 92° |
| 2026-04-30 10:31 | 22.57499 | 120.36328 | 37 ft | 18 kts | 91° |
| 2026-04-30 10:31 | 22.57495 | 120.36457 | 37 ft | 16 kts | 92° |
| 2026-04-30 10:31 | 22.57528 | 120.36519 | 38 ft | 9 kts | 21° |
| 2026-04-30 10:31 | 22.57590 | 120.36527 | 38 ft | 9 kts | 358° |
| 2026-04-30 10:32 | 22.57650 | 120.36502 | 38 ft | 10 kts | 309° |
| 2026-04-30 10:32 | 22.57664 | 120.36433 | 38 ft | 9 kts | 271° |
| 2026-04-30 10:32 | 22.57664 | 120.36415 | 38 ft | 0 kts | 271° |
| 2026-04-30 10:32 | 22.57664 | 120.36414 | 38 ft | 0 kts | 271° |
| 2026-04-30 10:33 | 22.57664 | 120.36412 | 38 ft | 1 kts | 271° |
| 2026-04-30 10:33 | 22.57667 | 120.36301 | 39 ft | 46 kts | 271° |
| 2026-04-30 10:33 | 22.57687 | 120.35690 | 37 ft | 117 kts | 272° |
| 2026-04-30 10:33 | 22.57756 | 120.34597 | 94 ft | 169 kts | 275° |
| 2026-04-30 10:34 | 22.57833 | 120.33350 | 964 ft | 157 kts | 274° |
| 2026-04-30 10:34 | 22.57894 | 120.32164 | 1733 ft | 163 kts | 272° |
| 2026-04-30 10:34 | 22.58150 | 120.30955 | 2402 ft | 176 kts | 301° |
| 2026-04-30 10:34 | 22.59153 | 120.30050 | 2834 ft | 203 kts | 338° |
| 2026-04-30 10:35 | 22.60583 | 120.29962 | 3498 ft | 214 kts | 16° |
| 2026-04-30 10:35 | 22.61776 | 120.30853 | 4405 ft | 206 kts | 50° |
| 2026-04-30 10:35 | 22.62751 | 120.31964 | 5408 ft | 204 kts | 41° |
| 2026-04-30 10:35 | 22.63934 | 120.33007 | 5790 ft | 236 kts | 37° |
| 2026-04-30 10:36 | 22.65312 | 120.34168 | 6103 ft | 263 kts | 34° |
| 2026-04-30 10:36 | 22.66885 | 120.35312 | 6633 ft | 279 kts | 30° |
| 2026-04-30 10:36 | 22.68543 | 120.36394 | 7472 ft | 280 kts | 27° |
| 2026-04-30 10:36 | 22.70298 | 120.37433 | 8019 ft | 294 kts | 25° |
| 2026-04-30 10:37 | 22.72158 | 120.38440 | 8714 ft | 302 kts | 22° |
| 2026-04-30 10:37 | 22.74079 | 120.39408 | 9479 ft | 306 kts | 20° |
| 2026-04-30 10:37 | 22.76044 | 120.40344 | 10219 ft | 311 kts | 19° |
| 2026-04-30 10:37 | 22.78098 | 120.41279 | 10531 ft | 333 kts | 19° |
| 2026-04-30 10:38 | 22.80316 | 120.42254 | 10762 ft | 354 kts | 18° |
| 2026-04-30 10:38 | 22.82634 | 120.43255 | 11327 ft | 361 kts | 19° |
| 2026-04-30 10:38 | 22.84991 | 120.44261 | 11969 ft | 367 kts | 18° |
| 2026-04-30 10:38 | 22.87390 | 120.45274 | 12639 ft | 372 kts | 17° |
| 2026-04-30 10:39 | 22.89815 | 120.46290 | 13347 ft | 376 kts | 17° |
| 2026-04-30 10:39 | 22.92277 | 120.47318 | 14004 ft | 381 kts | 17° |
| 2026-04-30 10:39 | 22.94768 | 120.48355 | 14655 ft | 385 kts | 17° |
| 2026-04-30 10:39 | 22.97281 | 120.49403 | 15287 ft | 387 kts | 17° |
| 2026-04-30 10:40 | 22.99811 | 120.50455 | 15936 ft | 391 kts | 17° |
| 2026-04-30 10:40 | 23.02369 | 120.51517 | 16546 ft | 396 kts | 17° |
| 2026-04-30 10:40 | 23.04956 | 120.52592 | 17182 ft | 400 kts | 17° |
| 2026-04-30 10:40 | 23.07566 | 120.53677 | 17807 ft | 404 kts | 17° |
| 2026-04-30 10:41 | 23.10213 | 120.54778 | 18363 ft | 410 kts | 17° |
| 2026-04-30 10:41 | 23.12860 | 120.55879 | 18809 ft | 416 kts | 17° |
| 2026-04-30 10:41 | 23.15557 | 120.57003 | 19439 ft | 416 kts | 17° |
| 2026-04-30 10:41 | 23.18260 | 120.58131 | 20072 ft | 417 kts | 16° |
| 2026-04-30 10:42 | 23.20984 | 120.59267 | 20630 ft | 420 kts | 17° |
| 2026-04-30 10:42 | 23.23723 | 120.60409 | 21132 ft | 424 kts | 16° |
| 2026-04-30 10:42 | 23.26491 | 120.61564 | 21610 ft | 428 kts | 16° |
| 2026-04-30 10:42 | 23.29281 | 120.62728 | 22134 ft | 430 kts | 16° |
| 2026-04-30 10:43 | 23.32083 | 120.63899 | 22617 ft | 434 kts | 16° |
| 2026-04-30 10:43 | 23.34913 | 120.65081 | 23088 ft | 437 kts | 16° |
| 2026-04-30 10:43 | 23.37760 | 120.66271 | 23569 ft | 440 kts | 16° |
| 2026-04-30 10:43 | 23.40623 | 120.67469 | 23963 ft | 442 kts | 16° |
| 2026-04-30 10:44 | 23.43510 | 120.68668 | 24230 ft | 447 kts | 17° |
| 2026-04-30 10:44 | 23.46422 | 120.69889 | 24669 ft | 448 kts | 16° |
| 2026-04-30 10:44 | 23.49334 | 120.71112 | 25124 ft | 449 kts | 16° |
| 2026-04-30 10:44 | 23.52261 | 120.72341 | 25515 ft | 452 kts | 16° |
| 2026-04-30 10:45 | 23.55206 | 120.73577 | 25880 ft | 456 kts | 16° |
| 2026-04-30 10:45 | 23.58176 | 120.74822 | 26248 ft | 459 kts | 16° |
| 2026-04-30 10:45 | 23.61164 | 120.76076 | 26638 ft | 461 kts | 17° |
| 2026-04-30 10:45 | 23.64167 | 120.77336 | 27036 ft | 464 kts | 17° |
| 2026-04-30 10:46 | 23.67190 | 120.78606 | 27404 ft | 467 kts | 16° |
| 2026-04-30 10:46 | 23.70233 | 120.79884 | 27737 ft | 470 kts | 17° |
| 2026-04-30 10:46 | 23.73295 | 120.81172 | 28102 ft | 474 kts | 16° |
| 2026-04-30 10:46 | 23.76377 | 120.82469 | 28507 ft | 474 kts | 16° |
| 2026-04-30 10:47 | 23.79453 | 120.83765 | 28921 ft | 475 kts | 16° |
| 2026-04-30 10:47 | 23.82515 | 120.85054 | 29160 ft | 480 kts | 16° |
| 2026-04-30 10:47 | 23.85639 | 120.86369 | 29415 ft | 482 kts | 16° |
| 2026-04-30 10:47 | 23.88778 | 120.87692 | 29667 ft | 486 kts | 16° |
| 2026-04-30 10:48 | 23.91982 | 120.89043 | 29940 ft | 488 kts | 16° |
| 2026-04-30 10:48 | 23.95114 | 120.90364 | 30224 ft | 489 kts | 17° |
| 2026-04-30 10:48 | 23.98336 | 120.91726 | 30508 ft | 491 kts | 16° |
| 2026-04-30 10:48 | 24.01480 | 120.93055 | 30826 ft | 490 kts | 17° |
| 2026-04-30 10:49 | 24.04655 | 120.94399 | 31220 ft | 488 kts | 17° |
| 2026-04-30 10:49 | 24.07817 | 120.95737 | 31610 ft | 487 kts | 17° |
| 2026-04-30 10:49 | 24.10975 | 120.97074 | 32011 ft | 485 kts | 17° |
| 2026-04-30 10:49 | 24.14119 | 120.98406 | 32444 ft | 484 kts | 17° |
| 2026-04-30 10:50 | 24.17230 | 120.99726 | 32852 ft | 482 kts | 18° |
| 2026-04-30 10:50 | 24.20357 | 121.01055 | 33270 ft | 481 kts | 18° |
| 2026-04-30 10:50 | 24.23462 | 121.02372 | 33691 ft | 479 kts | 18° |
| 2026-04-30 10:50 | 24.26566 | 121.03687 | 34114 ft | 477 kts | 18° |
| 2026-04-30 10:51 | 24.29094 | 121.04758 | 34441 ft | 474 kts | 18° |
| 2026-04-30 10:51 | 24.32166 | 121.06061 | 34794 ft | 473 kts | 18° |
| 2026-04-30 10:51 | 24.35232 | 121.07361 | 35107 ft | 472 kts | 18° |
| 2026-04-30 10:51 | 24.38293 | 121.08660 | 35423 ft | 471 kts | 18° |
| 2026-04-30 10:52 | 24.41343 | 121.09957 | 35777 ft | 469 kts | 18° |
| 2026-04-30 10:52 | 24.44382 | 121.11250 | 36144 ft | 468 kts | 18° |
| 2026-04-30 10:52 | 24.50457 | 121.13837 | 36181 ft | 469 kts | 18° |
| 2026-04-30 10:53 | 24.56537 | 121.16428 | 36188 ft | 468 kts | 18° |
| 2026-04-30 10:53 | 24.62612 | 121.19020 | 36190 ft | 469 kts | 18° |
| 2026-04-30 10:54 | 24.68696 | 121.21619 | 36187 ft | 469 kts | 18° |
| 2026-04-30 10:54 | 24.74772 | 121.24217 | 36181 ft | 469 kts | 18° |
| 2026-04-30 10:55 | 24.80858 | 121.26822 | 36182 ft | 469 kts | 18° |
| 2026-04-30 10:55 | 24.86908 | 121.29414 | 36187 ft | 470 kts | 18° |
| 2026-04-30 10:56 | 24.92995 | 121.32025 | 36192 ft | 470 kts | 18° |
| 2026-04-30 10:56 | 24.99089 | 121.34642 | 36192 ft | 470 kts | 18° |
| 2026-04-30 10:57 | 25.05183 | 121.37261 | 36192 ft | 470 kts | 18° |
| 2026-04-30 10:57 | 25.11274 | 121.39882 | 36181 ft | 470 kts | 18° |
| 2026-04-30 10:58 | 25.17371 | 121.42509 | 36171 ft | 470 kts | 18° |
| 2026-04-30 10:58 | 25.23464 | 121.45136 | 36189 ft | 470 kts | 18° |
| 2026-04-30 10:59 | 25.29562 | 121.47769 | 36170 ft | 470 kts | 18° |
| 2026-04-30 10:59 | 25.35652 | 121.50401 | 36181 ft | 469 kts | 18° |
| 2026-04-30 11:00 | 25.41727 | 121.53029 | 36178 ft | 468 kts | 17° |
| 2026-04-30 11:00 | 25.47791 | 121.55656 | 36181 ft | 468 kts | 17° |
| 2026-04-30 11:01 | 25.52825 | 121.57838 | 36179 ft | 467 kts | 17° |
| 2026-04-30 11:01 | 25.58867 | 121.60461 | 36191 ft | 466 kts | 17° |
| 2026-04-30 11:02 | 25.64911 | 121.63086 | 36196 ft | 466 kts | 17° |
| 2026-04-30 11:02 | 25.71929 | 121.66138 | 36195 ft | 466 kts | 17° |
| 2026-04-30 11:03 | 25.76989 | 121.68342 | 36198 ft | 466 kts | 17° |
| 2026-04-30 11:04 | 25.86051 | 121.72293 | 36202 ft | 467 kts | 17° |
| 2026-04-30 11:04 | 25.92097 | 121.74933 | 36204 ft | 467 kts | 17° |
| 2026-04-30 11:05 | 25.98146 | 121.77576 | 36211 ft | 467 kts | 17° |
| 2026-04-30 11:05 | 26.04165 | 121.80210 | 36212 ft | 468 kts | 17° |
| 2026-04-30 11:06 | 26.10229 | 121.82866 | 36215 ft | 469 kts | 17° |
| 2026-04-30 11:06 | 26.16306 | 121.85531 | 36214 ft | 469 kts | 16° |
| 2026-04-30 11:07 | 26.22384 | 121.88199 | 36217 ft | 470 kts | 16° |
| 2026-04-30 11:07 | 26.28479 | 121.90878 | 36216 ft | 471 kts | 16° |
| 2026-04-30 11:08 | 26.34576 | 121.93561 | 36211 ft | 471 kts | 16° |
| 2026-04-30 11:08 | 26.40677 | 121.96248 | 36216 ft | 472 kts | 16° |
| 2026-04-30 11:09 | 26.46787 | 121.98943 | 36216 ft | 472 kts | 16° |
| 2026-04-30 11:09 | 26.52895 | 122.01640 | 36219 ft | 472 kts | 16° |
| 2026-04-30 11:10 | 26.58964 | 122.04323 | 36216 ft | 472 kts | 16° |
| 2026-04-30 11:10 | 26.65069 | 122.07025 | 36222 ft | 472 kts | 16° |
| 2026-04-30 11:11 | 26.71182 | 122.09733 | 36221 ft | 472 kts | 16° |
| 2026-04-30 11:11 | 26.77288 | 122.12442 | 36220 ft | 473 kts | 16° |
| 2026-04-30 11:12 | 26.83408 | 122.15160 | 36221 ft | 473 kts | 16° |
| 2026-04-30 11:12 | 26.89528 | 122.17881 | 36224 ft | 473 kts | 16° |
| 2026-04-30 11:13 | 26.95647 | 122.20605 | 36227 ft | 474 kts | 16° |
| 2026-04-30 11:13 | 27.01775 | 122.23335 | 36225 ft | 474 kts | 15° |
| 2026-04-30 11:14 | 27.07909 | 122.26073 | 36227 ft | 475 kts | 15° |
| 2026-04-30 11:14 | 27.14049 | 122.28816 | 36228 ft | 475 kts | 15° |
| 2026-04-30 11:15 | 27.20199 | 122.31567 | 36230 ft | 476 kts | 15° |
| 2026-04-30 11:15 | 27.26351 | 122.34322 | 36234 ft | 476 kts | 15° |
| 2026-04-30 11:16 | 27.32539 | 122.36932 | 36212 ft | 468 kts | 4° |
| 2026-04-30 11:16 | 27.35709 | 122.37185 | 36245 ft | 449 kts | 347° |
| 2026-04-30 11:16 | 27.38702 | 122.36468 | 36239 ft | 433 kts | 332° |
| 2026-04-30 11:16 | 27.41344 | 122.34970 | 36240 ft | 419 kts | 318° |
| 2026-04-30 11:17 | 27.43496 | 122.32903 | 36239 ft | 408 kts | 306° |
| 2026-04-30 11:17 | 27.46434 | 122.27606 | 36238 ft | 395 kts | 284° |
| 2026-04-30 11:18 | 27.47642 | 122.21620 | 36239 ft | 393 kts | 277° |
| 2026-04-30 11:18 | 27.49127 | 122.12511 | 36240 ft | 396 kts | 277° |
| 2026-04-30 11:19 | 27.50159 | 122.06411 | 36232 ft | 397 kts | 278° |
| 2026-04-30 11:19 | 27.51210 | 122.00305 | 36237 ft | 397 kts | 278° |
| 2026-04-30 11:20 | 27.52265 | 121.94195 | 36244 ft | 397 kts | 278° |
| 2026-04-30 11:20 | 27.53313 | 121.88103 | 36236 ft | 396 kts | 277° |
| 2026-04-30 11:21 | 27.54356 | 121.82026 | 36240 ft | 394 kts | 277° |
| 2026-04-30 11:21 | 27.55391 | 121.75978 | 36238 ft | 392 kts | 277° |
| 2026-04-30 11:22 | 27.56419 | 121.69952 | 36239 ft | 391 kts | 277° |
| 2026-04-30 11:22 | 27.57440 | 121.63951 | 36235 ft | 389 kts | 277° |
| 2026-04-30 11:23 | 27.58456 | 121.57964 | 36242 ft | 388 kts | 277° |
| 2026-04-30 11:24 | 27.60025 | 121.49056 | 36240 ft | 388 kts | 277° |
| 2026-04-30 11:24 | 27.61086 | 121.43102 | 36239 ft | 387 kts | 277° |
| 2026-04-30 11:25 | 27.62666 | 121.34165 | 36240 ft | 387 kts | 277° |
| 2026-04-30 11:26 | 27.64760 | 121.22240 | 36237 ft | 388 kts | 277° |
| 2026-04-30 11:26 | 27.65804 | 121.16274 | 36232 ft | 388 kts | 277° |
| 2026-04-30 11:27 | 27.66845 | 121.10309 | 36239 ft | 387 kts | 277° |
| 2026-04-30 11:27 | 27.67882 | 121.04345 | 36234 ft | 387 kts | 277° |
| 2026-04-30 11:28 | 27.69431 | 120.95413 | 36231 ft | 386 kts | 277° |
| 2026-04-30 11:29 | 27.70460 | 120.89460 | 36234 ft | 386 kts | 277° |
| 2026-04-30 11:29 | 27.71986 | 120.80602 | 36233 ft | 384 kts | 277° |
| 2026-04-30 11:30 | 27.73509 | 120.71726 | 36241 ft | 383 kts | 277° |
| 2026-04-30 11:31 | 27.74519 | 120.65824 | 36239 ft | 382 kts | 277° |
| 2026-04-30 11:31 | 27.75940 | 120.60019 | 36237 ft | 386 kts | 285° |
| 2026-04-30 11:32 | 27.77856 | 120.54349 | 36232 ft | 386 kts | 285° |
| 2026-04-30 11:32 | 27.79769 | 120.48688 | 36230 ft | 386 kts | 285° |
| 2026-04-30 11:33 | 27.82608 | 120.40191 | 36233 ft | 385 kts | 285° |
| 2026-04-30 11:33 | 27.84486 | 120.34539 | 36238 ft | 384 kts | 285° |
| 2026-04-30 11:34 | 27.86363 | 120.28880 | 36252 ft | 384 kts | 285° |
| 2026-04-30 11:34 | 27.88235 | 120.23225 | 36228 ft | 383 kts | 285° |
| 2026-04-30 11:35 | 27.90099 | 120.17585 | 36248 ft | 383 kts | 285° |
| 2026-04-30 11:35 | 27.91952 | 120.11971 | 36239 ft | 384 kts | 285° |
| 2026-04-30 11:36 | 27.93816 | 120.06315 | 36239 ft | 384 kts | 285° |
| 2026-04-30 11:36 | 27.95679 | 120.00652 | 36243 ft | 384 kts | 285° |
| 2026-04-30 11:37 | 27.97539 | 119.94991 | 36238 ft | 383 kts | 285° |
| 2026-04-30 11:37 | 27.99393 | 119.89337 | 36238 ft | 383 kts | 285° |
| 2026-04-30 11:38 | 28.01245 | 119.83681 | 36237 ft | 383 kts | 285° |
| 2026-04-30 11:38 | 28.03091 | 119.78034 | 36227 ft | 382 kts | 285° |
| 2026-04-30 11:39 | 28.04928 | 119.72406 | 36254 ft | 380 kts | 285° |
| 2026-04-30 11:39 | 28.06759 | 119.66788 | 36238 ft | 380 kts | 285° |
| 2026-04-30 11:40 | 28.09090 | 119.61397 | 36250 ft | 392 kts | 302° |
| 2026-04-30 11:40 | 28.11092 | 119.59245 | 36240 ft | 402 kts | 315° |
| 2026-04-30 11:40 | 28.13508 | 119.57654 | 36240 ft | 414 kts | 327° |
| 2026-04-30 11:41 | 28.16305 | 119.56651 | 36237 ft | 433 kts | 341° |
| 2026-04-30 11:41 | 28.19415 | 119.56487 | 36270 ft | 447 kts | 351° |
| 2026-04-30 11:41 | 28.25545 | 119.56885 | 36227 ft | 433 kts | 353° |
| 2026-04-30 11:42 | 28.28497 | 119.57124 | 36221 ft | 418 kts | 352° |
| 2026-04-30 11:42 | 28.31352 | 119.57328 | 36224 ft | 404 kts | 351° |
| 2026-04-30 11:42 | 28.34113 | 119.57497 | 36224 ft | 391 kts | 351° |
| 2026-04-30 11:42 | 28.36789 | 119.57642 | 36228 ft | 379 kts | 350° |
| 2026-04-30 11:43 | 28.39374 | 119.57776 | 36209 ft | 365 kts | 349° |
| 2026-04-30 11:43 | 28.41878 | 119.57907 | 36228 ft | 358 kts | 349° |
| 2026-04-30 11:43 | 28.46958 | 119.58155 | 36261 ft | 375 kts | 349° |
| 2026-04-30 11:44 | 28.52284 | 119.58467 | 36257 ft | 388 kts | 350° |
| 2026-04-30 11:44 | 28.57657 | 119.58820 | 36079 ft | 382 kts | 350° |
| 2026-04-30 11:45 | 28.60302 | 119.58995 | 35714 ft | 380 kts | 350° |
| 2026-04-30 11:45 | 28.62948 | 119.59162 | 35236 ft | 382 kts | 350° |
| 2026-04-30 11:45 | 28.65645 | 119.59320 | 34279 ft | 397 kts | 350° |
| 2026-04-30 11:45 | 28.68499 | 119.59473 | 32870 ft | 423 kts | 351° |
| 2026-04-30 11:46 | 28.71474 | 119.59646 | 32073 ft | 430 kts | 352° |
| 2026-04-30 11:46 | 28.74409 | 119.59840 | 31714 ft | 423 kts | 352° |
| 2026-04-30 11:46 | 28.77332 | 119.60039 | 31365 ft | 415 kts | 352° |
| 2026-04-30 11:46 | 28.80182 | 119.60234 | 30799 ft | 408 kts | 352° |
| 2026-04-30 11:47 | 28.83009 | 119.60417 | 30094 ft | 405 kts | 351° |
| 2026-04-30 11:47 | 28.85806 | 119.60593 | 29391 ft | 399 kts | 351° |
| 2026-04-30 11:47 | 28.88553 | 119.60764 | 28732 ft | 393 kts | 351° |
| 2026-04-30 11:47 | 28.91265 | 119.60933 | 28042 ft | 387 kts | 351° |
| 2026-04-30 11:48 | 28.93942 | 119.61097 | 27374 ft | 383 kts | 352° |
| 2026-04-30 11:48 | 28.96583 | 119.61260 | 26722 ft | 378 kts | 352° |
| 2026-04-30 11:48 | 28.99190 | 119.61421 | 26098 ft | 372 kts | 352° |
| 2026-04-30 11:48 | 29.01763 | 119.61580 | 25459 ft | 368 kts | 352° |
| 2026-04-30 11:49 | 29.04303 | 119.61737 | 24837 ft | 363 kts | 352° |
| 2026-04-30 11:49 | 29.06809 | 119.61893 | 24258 ft | 358 kts | 352° |
| 2026-04-30 11:49 | 29.09283 | 119.62048 | 23665 ft | 353 kts | 353° |
| 2026-04-30 11:49 | 29.11723 | 119.62201 | 22959 ft | 350 kts | 353° |
| 2026-04-30 11:50 | 29.14136 | 119.62353 | 22365 ft | 344 kts | 353° |
| 2026-04-30 11:50 | 29.16492 | 119.62504 | 21936 ft | 335 kts | 353° |
| 2026-04-30 11:50 | 29.18818 | 119.62649 | 21550 ft | 334 kts | 353° |
| 2026-04-30 11:50 | 29.21136 | 119.62791 | 21152 ft | 333 kts | 353° |
| 2026-04-30 11:51 | 29.23443 | 119.62933 | 20766 ft | 332 kts | 353° |
| 2026-04-30 11:51 | 29.25743 | 119.63075 | 20358 ft | 330 kts | 353° |
| 2026-04-30 11:51 | 29.27254 | 119.63169 | 20121 ft | 328 kts | 353° |
| 2026-04-30 11:51 | 29.29523 | 119.63311 | 19760 ft | 326 kts | 353° |
| 2026-04-30 11:52 | 29.31784 | 119.63452 | 19369 ft | 325 kts | 354° |
| 2026-04-30 11:52 | 29.34042 | 119.63592 | 19006 ft | 324 kts | 354° |
| 2026-04-30 11:52 | 29.36292 | 119.63733 | 18619 ft | 324 kts | 354° |
| 2026-04-30 11:52 | 29.39267 | 119.63918 | 18077 ft | 323 kts | 354° |
| 2026-04-30 11:53 | 29.40777 | 119.64013 | 17780 ft | 322 kts | 355° |
| 2026-04-30 11:53 | 29.43005 | 119.64154 | 17420 ft | 319 kts | 355° |
| 2026-04-30 11:53 | 29.45215 | 119.64293 | 17030 ft | 318 kts | 355° |
| 2026-04-30 11:53 | 29.47416 | 119.64431 | 16669 ft | 316 kts | 355° |
| 2026-04-30 11:54 | 29.49608 | 119.64568 | 16297 ft | 315 kts | 355° |
| 2026-04-30 11:54 | 29.51794 | 119.64704 | 15928 ft | 314 kts | 355° |
| 2026-04-30 11:54 | 29.53965 | 119.64841 | 15576 ft | 311 kts | 356° |
| 2026-04-30 11:54 | 29.56123 | 119.64953 | 15264 ft | 308 kts | 354° |
| 2026-04-30 11:55 | 29.58259 | 119.65006 | 15038 ft | 307 kts | 354° |
| 2026-04-30 11:55 | 29.60391 | 119.65049 | 14795 ft | 306 kts | 354° |
| 2026-04-30 11:55 | 29.62508 | 119.65098 | 14495 ft | 303 kts | 355° |
| 2026-04-30 11:55 | 29.64611 | 119.65188 | 14212 ft | 301 kts | 357° |
| 2026-04-30 11:56 | 29.66703 | 119.65333 | 13866 ft | 301 kts | 358° |
| 2026-04-30 11:56 | 29.68791 | 119.65486 | 13488 ft | 300 kts | 358° |
| 2026-04-30 11:56 | 29.70869 | 119.65632 | 13105 ft | 298 kts | 358° |
| 2026-04-30 11:56 | 29.72933 | 119.65773 | 12755 ft | 296 kts | 358° |
| 2026-04-30 11:57 | 29.74984 | 119.65911 | 12406 ft | 294 kts | 358° |
| 2026-04-30 11:57 | 29.77021 | 119.66042 | 12089 ft | 291 kts | 358° |
| 2026-04-30 11:57 | 29.79028 | 119.66148 | 11802 ft | 287 kts | 358° |
| 2026-04-30 11:57 | 29.80992 | 119.66246 | 11468 ft | 285 kts | 358° |
| 2026-04-30 11:58 | 29.82993 | 119.66349 | 11114 ft | 285 kts | 360° |
| 2026-04-30 11:58 | 29.84927 | 119.66961 | 10672 ft | 296 kts | 23° |
| 2026-04-30 11:58 | 29.86553 | 119.68440 | 10379 ft | 304 kts | 46° |
| 2026-04-30 11:58 | 29.87699 | 119.70423 | 10266 ft | 298 kts | 53° |
| 2026-04-30 11:59 | 29.88744 | 119.72455 | 10112 ft | 291 kts | 54° |
| 2026-04-30 11:59 | 29.89757 | 119.74436 | 9899 ft | 285 kts | 53° |
| 2026-04-30 11:59 | 29.90773 | 119.76391 | 9584 ft | 283 kts | 53° |
| 2026-04-30 11:59 | 29.91783 | 119.78320 | 9288 ft | 278 kts | 53° |
| 2026-04-30 12:00 | 29.92769 | 119.80199 | 8990 ft | 270 kts | 53° |
| 2026-04-30 12:00 | 29.93718 | 119.82032 | 8713 ft | 263 kts | 56° |
| 2026-04-30 12:00 | 29.94553 | 119.83903 | 8508 ft | 262 kts | 58° |
| 2026-04-30 12:00 | 29.95358 | 119.85795 | 8400 ft | 264 kts | 58° |
| 2026-04-30 12:01 | 29.96170 | 119.87695 | 8265 ft | 262 kts | 59° |
| 2026-04-30 12:01 | 29.96957 | 119.89535 | 8188 ft | 249 kts | 58° |
| 2026-04-30 12:01 | 29.97717 | 119.91295 | 8056 ft | 242 kts | 58° |
| 2026-04-30 12:01 | 29.98467 | 119.93006 | 7914 ft | 237 kts | 56° |
| 2026-04-30 12:02 | 29.99268 | 119.94654 | 7722 ft | 234 kts | 54° |
| 2026-04-30 12:02 | 30.00083 | 119.96281 | 7499 ft | 235 kts | 54° |
| 2026-04-30 12:02 | 30.00902 | 119.97912 | 7258 ft | 235 kts | 55° |
| 2026-04-30 12:02 | 30.01718 | 119.99545 | 7022 ft | 235 kts | 55° |
| 2026-04-30 12:03 | 30.02531 | 120.01181 | 6778 ft | 235 kts | 55° |
| 2026-04-30 12:03 | 30.04164 | 120.04474 | 6303 ft | 238 kts | 56° |
| 2026-04-30 12:03 | 30.04987 | 120.06135 | 6048 ft | 239 kts | 56° |
| 2026-04-30 12:04 | 30.05816 | 120.07812 | 5776 ft | 241 kts | 57° |
| 2026-04-30 12:04 | 30.06651 | 120.09502 | 5520 ft | 244 kts | 57° |
| 2026-04-30 12:04 | 30.07508 | 120.11182 | 5241 ft | 241 kts | 54° |
| 2026-04-30 12:04 | 30.08429 | 120.12767 | 4978 ft | 235 kts | 53° |
| 2026-04-30 12:05 | 30.09343 | 120.14313 | 4712 ft | 231 kts | 53° |
| 2026-04-30 12:05 | 30.10233 | 120.15828 | 4477 ft | 225 kts | 53° |
| 2026-04-30 12:05 | 30.11094 | 120.17301 | 4237 ft | 218 kts | 54° |
| 2026-04-30 12:05 | 30.11927 | 120.18733 | 4012 ft | 213 kts | 55° |
| 2026-04-30 12:06 | 30.12689 | 120.20187 | 3820 ft | 208 kts | 59° |
| 2026-04-30 12:06 | 30.13356 | 120.21626 | 3636 ft | 198 kts | 61° |
| 2026-04-30 12:06 | 30.13962 | 120.22993 | 3585 ft | 192 kts | 62° |
| 2026-04-30 12:06 | 30.14573 | 120.24380 | 3337 ft | 193 kts | 62° |
| 2026-04-30 12:07 | 30.15171 | 120.25744 | 3075 ft | 188 kts | 62° |
| 2026-04-30 12:07 | 30.15753 | 120.27070 | 2837 ft | 182 kts | 62° |
| 2026-04-30 12:07 | 30.16320 | 120.28360 | 2591 ft | 180 kts | 62° |
| 2026-04-30 12:07 | 30.16887 | 120.29651 | 2350 ft | 180 kts | 62° |
| 2026-04-30 12:08 | 30.17447 | 120.30925 | 2105 ft | 173 kts | 62° |
| 2026-04-30 12:08 | 30.17970 | 120.32115 | 1866 ft | 159 kts | 62° |
| 2026-04-30 12:08 | 30.18457 | 120.33223 | 1679 ft | 153 kts | 62° |
| 2026-04-30 12:08 | 30.18934 | 120.34306 | 1468 ft | 151 kts | 62° |
| 2026-04-30 12:09 | 30.19402 | 120.35371 | 1259 ft | 147 kts | 62° |
| 2026-04-30 12:09 | 30.19859 | 120.36409 | 1064 ft | 143 kts | 62° |
| 2026-04-30 12:09 | 30.20310 | 120.37433 | 886 ft | 143 kts | 62° |
| 2026-04-30 12:09 | 30.20764 | 120.38463 | 691 ft | 143 kts | 63° |
| 2026-04-30 12:10 | 30.21215 | 120.39487 | 514 ft | 143 kts | 63° |
| 2026-04-30 12:10 | 30.21660 | 120.40510 | 332 ft | 141 kts | 64° |
| 2026-04-30 12:10 | 30.22097 | 120.41514 | 123 ft | 139 kts | 64° |
| 2026-04-30 12:10 | 30.22514 | 120.42456 | 31 ft | 111 kts | 63° |
| 2026-04-30 12:11 | 30.22765 | 120.43031 | 31 ft | 49 kts | 61° |
| 2026-04-30 12:11 | 30.22863 | 120.43241 | 32 ft | 25 kts | 62° |
| 2026-04-30 12:11 | 30.22942 | 120.43414 | 34 ft | 23 kts | 63° |
| 2026-04-30 12:11 | 30.23014 | 120.43567 | 34 ft | 17 kts | 52° |
| 2026-04-30 12:12 | 30.23092 | 120.43666 | 33 ft | 16 kts | 40° |
| 2026-04-30 12:12 | 30.23171 | 120.43733 | 32 ft | 6 kts | 32° |
| 2026-04-30 12:12 | 30.23210 | 120.43761 | 32 ft | 7 kts | 32° |
| 2026-04-30 12:12 | 30.23253 | 120.43792 | 30 ft | 8 kts | 26° |
| 2026-04-30 12:13 | 30.23305 | 120.43797 | 31 ft | 8 kts | 348° |
| 2026-04-30 12:13 | 30.23352 | 120.43771 | 31 ft | 7 kts | 330° |
| 2026-04-30 12:13 | 30.23399 | 120.43745 | 31 ft | 7 kts | 335° |
| 2026-04-30 12:13 | 30.23444 | 120.43720 | 31 ft | 7 kts | 332° |
| 2026-04-30 12:14 | 30.23488 | 120.43693 | 30 ft | 7 kts | 332° |
| 2026-04-30 12:14 | 30.23529 | 120.43668 | 31 ft | 2 kts | 332° |
| 2026-04-30 12:14 | 30.23541 | 120.43661 | 31 ft | 2 kts | 332° |
| 2026-04-30 12:14 | 30.23559 | 120.43640 | 30 ft | 5 kts | 298° |
| 2026-04-30 12:15 | 30.23555 | 120.43602 | 31 ft | 5 kts | 251° |
| 2026-04-30 12:15 | 30.23544 | 120.43573 | 30 ft | 3 kts | 243° |
| 2026-04-30 12:15 | 30.23541 | 120.43568 | 30 ft | 0 kts | 243° |